sensor_id;sensor_type;location;lat;lon;timestamp;temperature;humidity
21035;DHT22;10676;50.848;3.272;2022-11-20T00:01:24;6.50;99.90
21035;DHT22;10676;50.848;3.272;2022-11-20T00:03:51;6.50;99.90
21035;DHT22;10676;50.848;3.272;2022-11-20T00:06:18;6.50;99.90
21035;DHT22;10676;50.848;3.272;2022-11-20T00:08:45;6.60;99.90
21035;DHT22;10676;50.848;3.272;2022-11-20T00:11:13;6.60;99.90
21035;DHT22;10676;50.848;3.272;2022-11-20T00:13:39;6.60;99.90
21035;DHT22;10676;50.848;3.272;2022-11-20T00:16:06;6.60;99.90
21035;DHT22;10676;50.848;3.272;2022-11-20T00:18:33;6.60;99.90
21035;DHT22;10676;50.848;3.272;2022-11-20T00:21:07;6.60;99.90
21035;DHT22;10676;50.848;3.272;2022-11-20T00:23:34;6.60;99.90
21035;DHT22;10676;50.848;3.272;2022-11-20T00:26:05;6.60;99.90
21035;DHT22;10676;50.848;3.272;2022-11-20T00:28:31;6.60;99.90
21035;DHT22;10676;50.848;3.272;2022-11-20T00:31:23;6.70;99.90
21035;DHT22;10676;50.848;3.272;2022-11-20T00:33:49;6.70;99.90
21035;DHT22;10676;50.848;3.272;2022-11-20T00:36:18;6.70;99.90
21035;DHT22;10676;50.848;3.272;2022-11-20T00:38:44;6.70;99.90
21035;DHT22;10676;50.848;3.272;2022-11-20T00:41:14;6.70;99.90
21035;DHT22;10676;50.848;3.272;2022-11-20T00:43:41;6.70;99.90
21035;DHT22;10676;50.848;3.272;2022-11-20T00:46:15;6.70;99.90
21035;DHT22;10676;50.848;3.272;2022-11-20T00:48:41;6.80;99.90
21035;DHT22;10676;50.848;3.272;2022-11-20T00:51:07;6.80;99.90
21035;DHT22;10676;50.848;3.272;2022-11-20T00:53:33;6.80;99.90
21035;DHT22;10676;50.848;3.272;2022-11-20T00:56:06;6.80;99.90
21035;DHT22;10676;50.848;3.272;2022-11-20T00:58:34;6.80;99.90
21035;DHT22;10676;50.848;3.272;2022-11-20T01:01:23;6.80;99.90
21035;DHT22;10676;50.848;3.272;2022-11-20T01:03:50;6.80;99.90
21035;DHT22;10676;50.848;3.272;2022-11-20T01:08:44;6.90;99.90
21035;DHT22;10676;50.848;3.272;2022-11-20T01:11:17;6.90;99.90
21035;DHT22;10676;50.848;3.272;2022-11-20T01:13:45;6.90;99.90
21035;DHT22;10676;50.848;3.272;2022-11-20T01:16:17;7.00;99.90
21035;DHT22;10676;50.848;3.272;2022-11-20T01:18:46;7.00;99.90
21035;DHT22;10676;50.848;3.272;2022-11-20T01:21:16;7.00;99.90
21035;DHT22;10676;50.848;3.272;2022-11-20T01:23:43;7.00;99.90
21035;DHT22;10676;50.848;3.272;2022-11-20T01:26:11;7.00;99.90
21035;DHT22;10676;50.848;3.272;2022-11-20T01:28:37;7.00;99.90
21035;DHT22;10676;50.848;3.272;2022-11-20T01:33:51;7.00;99.90
21035;DHT22;10676;50.848;3.272;2022-11-20T01:36:19;7.10;99.90
21035;DHT22;10676;50.848;3.272;2022-11-20T01:38:45;7.10;99.90
21035;DHT22;10676;50.848;3.272;2022-11-20T01:41:12;7.10;99.90
21035;DHT22;10676;50.848;3.272;2022-11-20T01:43:58;7.10;99.90
21035;DHT22;10676;50.848;3.272;2022-11-20T01:46:24;7.10;99.90
21035;DHT22;10676;50.848;3.272;2022-11-20T01:51:41;7.00;99.90
21035;DHT22;10676;50.848;3.272;2022-11-20T01:54:11;7.00;99.90
21035;DHT22;10676;50.848;3.272;2022-11-20T01:56:41;7.00;99.90
21035;DHT22;10676;50.848;3.272;2022-11-20T01:59:10;7.00;99.90
21035;DHT22;10676;50.848;3.272;2022-11-20T02:01:38;7.10;99.90
21035;DHT22;10676;50.848;3.272;2022-11-20T02:04:05;6.90;99.90
21035;DHT22;10676;50.848;3.272;2022-11-20T02:06:38;7.00;99.90
21035;DHT22;10676;50.848;3.272;2022-11-20T02:09:05;7.00;99.90
21035;DHT22;10676;50.848;3.272;2022-11-20T02:11:31;7.00;99.90
21035;DHT22;10676;50.848;3.272;2022-11-20T02:13:57;7.00;99.90
21035;DHT22;10676;50.848;3.272;2022-11-20T02:16:27;7.00;99.90
21035;DHT22;10676;50.848;3.272;2022-11-20T02:18:56;7.00;99.90
21035;DHT22;10676;50.848;3.272;2022-11-20T02:24:25;7.00;99.90
21035;DHT22;10676;50.848;3.272;2022-11-20T02:27:03;7.00;99.90
21035;DHT22;10676;50.848;3.272;2022-11-20T02:29:40;7.00;99.90
21035;DHT22;10676;50.848;3.272;2022-11-20T02:32:19;7.00;99.90
21035;DHT22;10676;50.848;3.272;2022-11-20T02:34:45;7.00;99.90
21035;DHT22;10676;50.848;3.272;2022-11-20T02:37:11;7.00;99.90
21035;DHT22;10676;50.848;3.272;2022-11-20T02:39:37;7.00;99.90
21035;DHT22;10676;50.848;3.272;2022-11-20T02:42:03;7.00;99.90
21035;DHT22;10676;50.848;3.272;2022-11-20T02:44:29;7.00;99.90
21035;DHT22;10676;50.848;3.272;2022-11-20T02:46:57;7.10;99.90
21035;DHT22;10676;50.848;3.272;2022-11-20T02:49:24;7.00;99.90
21035;DHT22;10676;50.848;3.272;2022-11-20T02:51:49;7.00;99.90
21035;DHT22;10676;50.848;3.272;2022-11-20T02:54:15;7.00;99.90
21035;DHT22;10676;50.848;3.272;2022-11-20T02:56:41;6.90;99.90
21035;DHT22;10676;50.848;3.272;2022-11-20T02:59:07;6.90;99.90
21035;DHT22;10676;50.848;3.272;2022-11-20T03:01:32;6.90;99.90
21035;DHT22;10676;50.848;3.272;2022-11-20T03:03:58;7.00;99.90
21035;DHT22;10676;50.848;3.272;2022-11-20T03:06:24;6.90;99.90
21035;DHT22;10676;50.848;3.272;2022-11-20T03:08:49;6.90;99.90
21035;DHT22;10676;50.848;3.272;2022-11-20T03:11:16;6.80;99.90
21035;DHT22;10676;50.848;3.272;2022-11-20T03:13:42;6.80;99.90
21035;DHT22;10676;50.848;3.272;2022-11-20T03:16:14;6.80;99.90
21035;DHT22;10676;50.848;3.272;2022-11-20T03:18:41;6.90;99.90
21035;DHT22;10676;50.848;3.272;2022-11-20T03:21:08;6.90;99.90
21035;DHT22;10676;50.848;3.272;2022-11-20T03:23:34;6.90;99.90
21035;DHT22;10676;50.848;3.272;2022-11-20T03:26:14;6.90;99.90
21035;DHT22;10676;50.848;3.272;2022-11-20T03:28:41;6.90;99.90
21035;DHT22;10676;50.848;3.272;2022-11-20T03:31:10;6.90;99.90
21035;DHT22;10676;50.848;3.272;2022-11-20T03:33:36;6.90;99.90
21035;DHT22;10676;50.848;3.272;2022-11-20T03:36:04;6.80;99.90
21035;DHT22;10676;50.848;3.272;2022-11-20T03:38:30;6.90;99.90
21035;DHT22;10676;50.848;3.272;2022-11-20T03:41:05;6.80;99.90
21035;DHT22;10676;50.848;3.272;2022-11-20T03:43:32;6.80;99.90
21035;DHT22;10676;50.848;3.272;2022-11-20T03:45:58;6.90;99.90
21035;DHT22;10676;50.848;3.272;2022-11-20T03:48:24;6.80;99.90
21035;DHT22;10676;50.848;3.272;2022-11-20T03:50:51;6.80;99.90
21035;DHT22;10676;50.848;3.272;2022-11-20T03:53:17;6.80;99.90
21035;DHT22;10676;50.848;3.272;2022-11-20T03:55:42;6.80;99.90
21035;DHT22;10676;50.848;3.272;2022-11-20T03:58:09;6.80;99.90
21035;DHT22;10676;50.848;3.272;2022-11-20T04:00:35;6.80;99.90
21035;DHT22;10676;50.848;3.272;2022-11-20T04:03:01;6.80;99.90
21035;DHT22;10676;50.848;3.272;2022-11-20T04:05:27;6.80;99.90
21035;DHT22;10676;50.848;3.272;2022-11-20T04:07:53;6.80;99.90
21035;DHT22;10676;50.848;3.272;2022-11-20T04:10:19;6.80;99.90
21035;DHT22;10676;50.848;3.272;2022-11-20T04:12:45;6.70;99.90
21035;DHT22;10676;50.848;3.272;2022-11-20T04:15:10;6.70;99.90
21035;DHT22;10676;50.848;3.272;2022-11-20T04:17:36;6.70;99.90
21035;DHT22;10676;50.848;3.272;2022-11-20T04:20:03;6.70;99.90
21035;DHT22;10676;50.848;3.272;2022-11-20T04:22:28;6.70;99.90
21035;DHT22;10676;50.848;3.272;2022-11-20T04:24:54;6.70;99.90
21035;DHT22;10676;50.848;3.272;2022-11-20T04:27:20;6.70;99.90
21035;DHT22;10676;50.848;3.272;2022-11-20T04:29:45;6.70;99.90
21035;DHT22;10676;50.848;3.272;2022-11-20T04:32:11;6.70;99.90
21035;DHT22;10676;50.848;3.272;2022-11-20T04:34:37;6.70;99.90
21035;DHT22;10676;50.848;3.272;2022-11-20T04:37:02;6.70;99.90
21035;DHT22;10676;50.848;3.272;2022-11-20T04:39:28;6.70;99.90
21035;DHT22;10676;50.848;3.272;2022-11-20T04:41:53;6.70;99.90
21035;DHT22;10676;50.848;3.272;2022-11-20T04:44:39;6.70;99.90
21035;DHT22;10676;50.848;3.272;2022-11-20T04:47:04;6.70;99.90
21035;DHT22;10676;50.848;3.272;2022-11-20T04:49:30;6.70;99.90
21035;DHT22;10676;50.848;3.272;2022-11-20T04:51:57;6.80;99.90
21035;DHT22;10676;50.848;3.272;2022-11-20T04:54:23;6.80;99.90
21035;DHT22;10676;50.848;3.272;2022-11-20T04:56:49;6.80;99.90
21035;DHT22;10676;50.848;3.272;2022-11-20T04:59:14;6.80;99.90
21035;DHT22;10676;50.848;3.272;2022-11-20T05:01:40;6.80;99.90
21035;DHT22;10676;50.848;3.272;2022-11-20T05:04:06;6.80;99.90
21035;DHT22;10676;50.848;3.272;2022-11-20T05:06:31;6.80;99.90
21035;DHT22;10676;50.848;3.272;2022-11-20T05:08:57;6.80;99.90
21035;DHT22;10676;50.848;3.272;2022-11-20T05:11:23;6.80;99.90
21035;DHT22;10676;50.848;3.272;2022-11-20T05:13:50;6.90;99.90
21035;DHT22;10676;50.848;3.272;2022-11-20T05:16:19;6.90;99.90
21035;DHT22;10676;50.848;3.272;2022-11-20T05:18:45;6.90;99.90
21035;DHT22;10676;50.848;3.272;2022-11-20T05:21:11;6.90;99.90
21035;DHT22;10676;50.848;3.272;2022-11-20T05:23:38;6.90;99.90
21035;DHT22;10676;50.848;3.272;2022-11-20T05:26:04;7.00;99.90
21035;DHT22;10676;50.848;3.272;2022-11-20T05:28:31;6.90;99.90
21035;DHT22;10676;50.848;3.272;2022-11-20T05:31:11;7.00;99.90
21035;DHT22;10676;50.848;3.272;2022-11-20T05:33:39;7.00;99.90
21035;DHT22;10676;50.848;3.272;2022-11-20T05:36:05;7.00;99.90
21035;DHT22;10676;50.848;3.272;2022-11-20T05:38:31;7.00;99.90
21035;DHT22;10676;50.848;3.272;2022-11-20T05:41:24;7.10;99.90
21035;DHT22;10676;50.848;3.272;2022-11-20T05:43:50;7.00;99.90
21035;DHT22;10676;50.848;3.272;2022-11-20T05:46:18;7.00;99.90
21035;DHT22;10676;50.848;3.272;2022-11-20T05:48:44;7.10;99.90
21035;DHT22;10676;50.848;3.272;2022-11-20T05:51:13;7.10;99.90
21035;DHT22;10676;50.848;3.272;2022-11-20T05:53:39;7.10;99.90
21035;DHT22;10676;50.848;3.272;2022-11-20T05:56:17;7.10;99.90
21035;DHT22;10676;50.848;3.272;2022-11-20T05:58:44;7.10;99.90
21035;DHT22;10676;50.848;3.272;2022-11-20T06:01:13;7.10;99.90
21035;DHT22;10676;50.848;3.272;2022-11-20T06:03:40;7.10;99.90
21035;DHT22;10676;50.848;3.272;2022-11-20T06:06:08;7.10;99.90
21035;DHT22;10676;50.848;3.272;2022-11-20T06:08:34;7.10;99.90
21035;DHT22;10676;50.848;3.272;2022-11-20T06:11:07;7.10;99.90
21035;DHT22;10676;50.848;3.272;2022-11-20T06:13:34;7.10;99.90
21035;DHT22;10676;50.848;3.272;2022-11-20T06:16:00;7.10;99.90
21035;DHT22;10676;50.848;3.272;2022-11-20T06:18:29;7.00;99.90
21035;DHT22;10676;50.848;3.272;2022-11-20T06:21:13;7.10;99.90
21035;DHT22;10676;50.848;3.272;2022-11-20T06:23:40;7.10;99.90
21035;DHT22;10676;50.848;3.272;2022-11-20T06:26:11;7.10;99.90
21035;DHT22;10676;50.848;3.272;2022-11-20T06:28:37;7.10;99.90
21035;DHT22;10676;50.848;3.272;2022-11-20T06:31:03;7.10;99.90
21035;DHT22;10676;50.848;3.272;2022-11-20T06:33:29;7.10;99.90
21035;DHT22;10676;50.848;3.272;2022-11-20T06:35:59;7.20;99.90
21035;DHT22;10676;50.848;3.272;2022-11-20T06:38:26;7.20;99.90
21035;DHT22;10676;50.848;3.272;2022-11-20T06:40:52;7.20;99.90
21035;DHT22;10676;50.848;3.272;2022-11-20T06:43:18;7.20;99.90
21035;DHT22;10676;50.848;3.272;2022-11-20T06:45:44;7.30;99.90
21035;DHT22;10676;50.848;3.272;2022-11-20T06:48:09;7.30;99.90
21035;DHT22;10676;50.848;3.272;2022-11-20T06:50:38;7.30;99.90
21035;DHT22;10676;50.848;3.272;2022-11-20T06:53:04;7.30;99.90
21035;DHT22;10676;50.848;3.272;2022-11-20T06:55:31;7.30;99.90
21035;DHT22;10676;50.848;3.272;2022-11-20T06:57:56;7.40;99.90
21035;DHT22;10676;50.848;3.272;2022-11-20T07:00:22;7.40;99.90
21035;DHT22;10676;50.848;3.272;2022-11-20T07:02:48;7.40;99.90
21035;DHT22;10676;50.848;3.272;2022-11-20T07:05:13;7.40;99.90
21035;DHT22;10676;50.848;3.272;2022-11-20T07:07:39;7.40;99.90
21035;DHT22;10676;50.848;3.272;2022-11-20T07:10:05;7.50;99.90
21035;DHT22;10676;50.848;3.272;2022-11-20T07:12:31;7.40;99.90
21035;DHT22;10676;50.848;3.272;2022-11-20T07:14:56;7.50;99.90
21035;DHT22;10676;50.848;3.272;2022-11-20T07:17:22;7.50;99.90
21035;DHT22;10676;50.848;3.272;2022-11-20T07:19:48;7.50;99.90
21035;DHT22;10676;50.848;3.272;2022-11-20T07:22:13;7.50;99.90
21035;DHT22;10676;50.848;3.272;2022-11-20T07:24:39;7.60;99.90
21035;DHT22;10676;50.848;3.272;2022-11-20T07:27:05;7.60;99.90
21035;DHT22;10676;50.848;3.272;2022-11-20T07:29:30;7.70;99.90
21035;DHT22;10676;50.848;3.272;2022-11-20T07:31:56;7.60;99.90
21035;DHT22;10676;50.848;3.272;2022-11-20T07:34:22;7.80;99.90
21035;DHT22;10676;50.848;3.272;2022-11-20T07:36:48;7.70;99.90
21035;DHT22;10676;50.848;3.272;2022-11-20T07:39:14;7.70;99.90
21035;DHT22;10676;50.848;3.272;2022-11-20T07:41:39;7.80;99.90
21035;DHT22;10676;50.848;3.272;2022-11-20T07:44:05;7.80;99.90
21035;DHT22;10676;50.848;3.272;2022-11-20T07:46:31;7.80;99.90
21035;DHT22;10676;50.848;3.272;2022-11-20T07:48:56;7.80;99.90
21035;DHT22;10676;50.848;3.272;2022-11-20T07:51:22;7.90;99.90
21035;DHT22;10676;50.848;3.272;2022-11-20T07:53:51;7.90;99.90
21035;DHT22;10676;50.848;3.272;2022-11-20T07:56:16;7.90;99.90
21035;DHT22;10676;50.848;3.272;2022-11-20T07:58:42;8.00;99.90
21035;DHT22;10676;50.848;3.272;2022-11-20T08:01:07;8.00;99.90
21035;DHT22;10676;50.848;3.272;2022-11-20T08:03:33;8.00;99.90
21035;DHT22;10676;50.848;3.272;2022-11-20T08:06:00;8.00;99.90
21035;DHT22;10676;50.848;3.272;2022-11-20T08:08:26;8.10;99.90
21035;DHT22;10676;50.848;3.272;2022-11-20T08:10:52;8.10;99.90
21035;DHT22;10676;50.848;3.272;2022-11-20T08:13:17;8.20;99.90
21035;DHT22;10676;50.848;3.272;2022-11-20T08:16:01;8.20;99.90
21035;DHT22;10676;50.848;3.272;2022-11-20T08:18:27;8.20;99.90
21035;DHT22;10676;50.848;3.272;2022-11-20T08:20:53;8.20;99.90
21035;DHT22;10676;50.848;3.272;2022-11-20T08:23:18;8.30;99.90
21035;DHT22;10676;50.848;3.272;2022-11-20T08:25:49;8.30;99.90
21035;DHT22;10676;50.848;3.272;2022-11-20T08:28:15;8.30;99.90
21035;DHT22;10676;50.848;3.272;2022-11-20T08:30:40;8.40;99.90
21035;DHT22;10676;50.848;3.272;2022-11-20T08:33:08;8.50;99.90
21035;DHT22;10676;50.848;3.272;2022-11-20T08:35:38;8.60;99.90
21035;DHT22;10676;50.848;3.272;2022-11-20T08:38:04;8.60;99.90
21035;DHT22;10676;50.848;3.272;2022-11-20T08:40:30;8.60;99.90
21035;DHT22;10676;50.848;3.272;2022-11-20T08:42:56;8.70;99.90
21035;DHT22;10676;50.848;3.272;2022-11-20T08:45:22;8.70;99.90
21035;DHT22;10676;50.848;3.272;2022-11-20T08:47:48;8.80;99.90
21035;DHT22;10676;50.848;3.272;2022-11-20T08:50:15;8.90;99.90
21035;DHT22;10676;50.848;3.272;2022-11-20T08:52:41;9.00;99.90
21035;DHT22;10676;50.848;3.272;2022-11-20T08:55:07;9.10;99.90
21035;DHT22;10676;50.848;3.272;2022-11-20T08:57:34;9.20;99.90
21035;DHT22;10676;50.848;3.272;2022-11-20T09:00:00;9.30;99.90
21035;DHT22;10676;50.848;3.272;2022-11-20T09:02:25;9.40;99.90
21035;DHT22;10676;50.848;3.272;2022-11-20T09:04:51;9.50;99.90
21035;DHT22;10676;50.848;3.272;2022-11-20T09:07:18;9.70;99.90
21035;DHT22;10676;50.848;3.272;2022-11-20T09:09:44;9.90;99.90
21035;DHT22;10676;50.848;3.272;2022-11-20T09:12:10;10.00;99.90
21035;DHT22;10676;50.848;3.272;2022-11-20T09:14:35;10.10;99.90
21035;DHT22;10676;50.848;3.272;2022-11-20T09:17:01;10.20;99.90
21035;DHT22;10676;50.848;3.272;2022-11-20T09:19:27;10.40;99.90
21035;DHT22;10676;50.848;3.272;2022-11-20T09:21:52;10.50;99.90
21035;DHT22;10676;50.848;3.272;2022-11-20T09:24:18;10.60;99.90
21035;DHT22;10676;50.848;3.272;2022-11-20T09:26:44;10.60;99.90
21035;DHT22;10676;50.848;3.272;2022-11-20T09:29:10;10.70;99.90
21035;DHT22;10676;50.848;3.272;2022-11-20T09:31:36;10.70;99.90
21035;DHT22;10676;50.848;3.272;2022-11-20T09:34:02;10.80;99.90
21035;DHT22;10676;50.848;3.272;2022-11-20T09:36:27;10.90;99.90
21035;DHT22;10676;50.848;3.272;2022-11-20T09:38:53;11.00;99.90
21035;DHT22;10676;50.848;3.272;2022-11-20T09:46:58;11.50;99.90
21035;DHT22;10676;50.848;3.272;2022-11-20T09:52:20;12.10;99.90
21035;DHT22;10676;50.848;3.272;2022-11-20T09:54:47;12.30;99.90
21035;DHT22;10676;50.848;3.272;2022-11-20T09:57:18;12.40;99.90
21035;DHT22;10676;50.848;3.272;2022-11-20T09:59:59;12.50;99.90
21035;DHT22;10676;50.848;3.272;2022-11-20T10:03:06;12.60;99.90
21035;DHT22;10676;50.848;3.272;2022-11-20T10:06:07;12.60;99.90
21035;DHT22;10676;50.848;3.272;2022-11-20T10:09:01;12.70;99.90
21035;DHT22;10676;50.848;3.272;2022-11-20T10:25:48;12.30;99.90
21035;DHT22;10676;50.848;3.272;2022-11-20T10:28:29;12.20;99.90
21035;DHT22;10676;50.848;3.272;2022-11-20T10:31:11;12.10;99.90
21035;DHT22;10676;50.848;3.272;2022-11-20T10:33:41;12.00;99.90
21035;DHT22;10676;50.848;3.272;2022-11-20T10:36:19;11.90;99.90
21035;DHT22;10676;50.848;3.272;2022-11-20T10:38:50;11.70;99.90
21035;DHT22;10676;50.848;3.272;2022-11-20T10:41:23;11.50;99.90
21035;DHT22;10676;50.848;3.272;2022-11-20T10:43:58;11.30;99.90
21035;DHT22;10676;50.848;3.272;2022-11-20T10:46:26;11.10;99.90
21035;DHT22;10676;50.848;3.272;2022-11-20T10:48:54;10.90;99.90
21035;DHT22;10676;50.848;3.272;2022-11-20T10:51:37;10.60;99.90
21035;DHT22;10676;50.848;3.272;2022-11-20T10:56:51;10.20;99.90
21035;DHT22;10676;50.848;3.272;2022-11-20T11:02:21;9.90;99.90
21035;DHT22;10676;50.848;3.272;2022-11-20T11:04:50;9.90;99.90
21035;DHT22;10676;50.848;3.272;2022-11-20T11:09:57;10.10;99.90
21035;DHT22;10676;50.848;3.272;2022-11-20T11:12:25;10.20;99.90
21035;DHT22;10676;50.848;3.272;2022-11-20T11:14:56;10.20;99.90
21035;DHT22;10676;50.848;3.272;2022-11-20T11:17:26;10.20;99.90
21035;DHT22;10676;50.848;3.272;2022-11-20T11:19:59;10.20;99.90
21035;DHT22;10676;50.848;3.272;2022-11-20T11:22:29;10.20;99.90
21035;DHT22;10676;50.848;3.272;2022-11-20T11:24:55;10.20;99.90
21035;DHT22;10676;50.848;3.272;2022-11-20T11:27:21;10.10;99.90
21035;DHT22;10676;50.848;3.272;2022-11-20T11:29:46;10.00;99.90
21035;DHT22;10676;50.848;3.272;2022-11-20T11:32:14;10.00;99.90
21035;DHT22;10676;50.848;3.272;2022-11-20T11:34:40;9.90;99.90
21035;DHT22;10676;50.848;3.272;2022-11-20T11:37:15;9.90;99.90
21035;DHT22;10676;50.848;3.272;2022-11-20T11:39:43;9.90;99.90
21035;DHT22;10676;50.848;3.272;2022-11-20T11:42:19;9.90;99.90
21035;DHT22;10676;50.848;3.272;2022-11-20T11:44:46;9.80;99.90
21035;DHT22;10676;50.848;3.272;2022-11-20T11:47:35;9.80;99.90
21035;DHT22;10676;50.848;3.272;2022-11-20T11:55:11;9.90;99.90
21035;DHT22;10676;50.848;3.272;2022-11-20T11:57:57;9.90;99.90
21035;DHT22;10676;50.848;3.272;2022-11-20T12:00:25;9.90;99.90
21035;DHT22;10676;50.848;3.272;2022-11-20T12:05:45;9.90;99.90
21035;DHT22;10676;50.848;3.272;2022-11-20T12:08:23;9.80;99.90
21035;DHT22;10676;50.848;3.272;2022-11-20T12:10:57;9.80;99.90
21035;DHT22;10676;50.848;3.272;2022-11-20T12:16:03;9.80;99.90
21035;DHT22;10676;50.848;3.272;2022-11-20T12:18:30;9.80;99.90
21035;DHT22;10676;50.848;3.272;2022-11-20T12:23:53;9.80;99.90
21035;DHT22;10676;50.848;3.272;2022-11-20T12:32:03;10.00;99.90
21035;DHT22;10676;50.848;3.272;2022-11-20T12:34:47;10.10;99.90
21035;DHT22;10676;50.848;3.272;2022-11-20T12:37:19;10.10;99.90
21035;DHT22;10676;50.848;3.272;2022-11-20T12:39:50;10.20;99.90
21035;DHT22;10676;50.848;3.272;2022-11-20T12:42:42;10.10;99.90
21035;DHT22;10676;50.848;3.272;2022-11-20T13:05:58;10.00;99.90
21035;DHT22;10676;50.848;3.272;2022-11-20T13:08:28;10.00;99.90
21035;DHT22;10676;50.848;3.272;2022-11-20T13:16:33;9.70;99.90
21035;DHT22;10676;50.848;3.272;2022-11-20T13:19:04;9.70;99.90
21035;DHT22;10676;50.848;3.272;2022-11-20T13:21:45;9.60;99.90
21035;DHT22;10676;50.848;3.272;2022-11-20T13:29:44;9.30;99.90
21035;DHT22;10676;50.848;3.272;2022-11-20T13:34:38;9.40;99.90
21035;DHT22;10676;50.848;3.272;2022-11-20T13:37:03;9.50;99.90
21035;DHT22;10676;50.848;3.272;2022-11-20T13:39:34;9.70;99.90
21035;DHT22;10676;50.848;3.272;2022-11-20T13:42:25;9.90;99.90
21035;DHT22;10676;50.848;3.272;2022-11-20T13:44:54;10.10;99.90
21035;DHT22;10676;50.848;3.272;2022-11-20T13:47:26;10.20;99.90
21035;DHT22;10676;50.848;3.272;2022-11-20T13:49:54;10.40;99.90
21035;DHT22;10676;50.848;3.272;2022-11-20T14:00:48;10.80;99.90
21035;DHT22;10676;50.848;3.272;2022-11-20T14:05:59;10.90;99.90
21035;DHT22;10676;50.848;3.272;2022-11-20T14:08:42;11.00;99.90
21035;DHT22;10676;50.848;3.272;2022-11-20T14:11:20;11.10;99.90
21035;DHT22;10676;50.848;3.272;2022-11-20T14:16:33;11.10;99.90
21035;DHT22;10676;50.848;3.272;2022-11-20T14:21:47;11.00;99.90
21035;DHT22;10676;50.848;3.272;2022-11-20T14:24:18;11.10;99.90
21035;DHT22;10676;50.848;3.272;2022-11-20T14:26:45;11.10;99.90
21035;DHT22;10676;50.848;3.272;2022-11-20T14:29:23;11.00;99.90
21035;DHT22;10676;50.848;3.272;2022-11-20T14:31:54;11.00;99.90
21035;DHT22;10676;50.848;3.272;2022-11-20T14:34:30;10.90;99.90
21035;DHT22;10676;50.848;3.272;2022-11-20T14:37:05;10.90;99.90
21035;DHT22;10676;50.848;3.272;2022-11-20T14:39:36;10.80;99.90
21035;DHT22;10676;50.848;3.272;2022-11-20T14:42:23;10.70;99.90
21035;DHT22;10676;50.848;3.272;2022-11-20T14:44:50;10.70;99.90
21035;DHT22;10676;50.848;3.272;2022-11-20T14:47:23;10.80;99.90
21035;DHT22;10676;50.848;3.272;2022-11-20T14:49:51;11.00;99.90
21035;DHT22;10676;50.848;3.272;2022-11-20T14:52:22;11.00;99.90
21035;DHT22;10676;50.848;3.272;2022-11-20T14:54:50;11.00;99.90
21035;DHT22;10676;50.848;3.272;2022-11-20T14:57:31;11.00;99.90
21035;DHT22;10676;50.848;3.272;2022-11-20T15:02:42;10.90;99.90
21035;DHT22;10676;50.848;3.272;2022-11-20T15:05:08;10.90;99.90
21035;DHT22;10676;50.848;3.272;2022-11-20T15:07:40;10.90;99.90
21035;DHT22;10676;50.848;3.272;2022-11-20T15:10:11;10.90;99.90
21035;DHT22;10676;50.848;3.272;2022-11-20T15:12:48;10.80;99.90
21035;DHT22;10676;50.848;3.272;2022-11-20T15:15:21;10.70;99.90
21035;DHT22;10676;50.848;3.272;2022-11-20T15:17:48;10.70;99.90
21035;DHT22;10676;50.848;3.272;2022-11-20T15:20:16;10.60;99.90
21035;DHT22;10676;50.848;3.272;2022-11-20T15:22:42;10.50;99.90
21035;DHT22;10676;50.848;3.272;2022-11-20T15:25:16;10.50;99.90
21035;DHT22;10676;50.848;3.272;2022-11-20T15:27:43;10.40;99.90
21035;DHT22;10676;50.848;3.272;2022-11-20T15:30:17;10.40;99.90
21035;DHT22;10676;50.848;3.272;2022-11-20T15:32:44;10.40;99.90
21035;DHT22;10676;50.848;3.272;2022-11-20T15:35:10;10.40;99.90
21035;DHT22;10676;50.848;3.272;2022-11-20T15:37:37;10.40;99.90
21035;DHT22;10676;50.848;3.272;2022-11-20T15:40:04;10.20;99.90
21035;DHT22;10676;50.848;3.272;2022-11-20T15:42:30;10.20;99.90
21035;DHT22;10676;50.848;3.272;2022-11-20T15:44:55;10.00;99.90
21035;DHT22;10676;50.848;3.272;2022-11-20T15:47:28;10.00;99.90
21035;DHT22;10676;50.848;3.272;2022-11-20T15:49:55;9.90;99.90
21035;DHT22;10676;50.848;3.272;2022-11-20T15:52:21;9.80;99.90
21035;DHT22;10676;50.848;3.272;2022-11-20T15:54:46;9.80;99.90
21035;DHT22;10676;50.848;3.272;2022-11-20T15:57:12;9.70;99.90
21035;DHT22;10676;50.848;3.272;2022-11-20T15:59:39;9.60;99.90
21035;DHT22;10676;50.848;3.272;2022-11-20T16:02:14;9.60;99.90
21035;DHT22;10676;50.848;3.272;2022-11-20T16:04:41;9.60;99.90
21035;DHT22;10676;50.848;3.272;2022-11-20T16:07:07;9.60;99.90
21035;DHT22;10676;50.848;3.272;2022-11-20T16:09:32;9.60;99.90
21035;DHT22;10676;50.848;3.272;2022-11-20T16:11:59;9.70;99.90
21035;DHT22;10676;50.848;3.272;2022-11-20T16:14:26;9.70;99.90
21035;DHT22;10676;50.848;3.272;2022-11-20T16:17:10;9.80;99.90
21035;DHT22;10676;50.848;3.272;2022-11-20T16:19:36;9.70;99.90
21035;DHT22;10676;50.848;3.272;2022-11-20T16:22:01;9.80;99.90
21035;DHT22;10676;50.848;3.272;2022-11-20T16:24:27;9.80;99.90
21035;DHT22;10676;50.848;3.272;2022-11-20T16:26:54;9.70;99.90
21035;DHT22;10676;50.848;3.272;2022-11-20T16:29:19;9.70;99.90
21035;DHT22;10676;50.848;3.272;2022-11-20T16:31:45;9.70;99.90
21035;DHT22;10676;50.848;3.272;2022-11-20T16:34:11;9.80;99.90
21035;DHT22;10676;50.848;3.272;2022-11-20T16:36:39;9.70;99.90
21035;DHT22;10676;50.848;3.272;2022-11-20T16:39:05;9.70;99.90
21035;DHT22;10676;50.848;3.272;2022-11-20T16:41:33;9.50;99.90
21035;DHT22;10676;50.848;3.272;2022-11-20T16:44:00;9.50;99.90
21035;DHT22;10676;50.848;3.272;2022-11-20T16:46:29;9.40;99.90
21035;DHT22;10676;50.848;3.272;2022-11-20T16:51:22;9.20;99.90
21035;DHT22;10676;50.848;3.272;2022-11-20T16:53:48;9.20;99.90
21035;DHT22;10676;50.848;3.272;2022-11-20T16:56:19;9.10;99.90
21035;DHT22;10676;50.848;3.272;2022-11-20T16:58:47;9.10;99.90
21035;DHT22;10676;50.848;3.272;2022-11-20T17:01:15;9.00;99.90
21035;DHT22;10676;50.848;3.272;2022-11-20T17:03:43;9.00;99.90
21035;DHT22;10676;50.848;3.272;2022-11-20T17:06:20;8.90;99.90
21035;DHT22;10676;50.848;3.272;2022-11-20T17:08:47;8.90;99.90
21035;DHT22;10676;50.848;3.272;2022-11-20T17:11:17;8.90;99.90
21035;DHT22;10676;50.848;3.272;2022-11-20T17:13:44;8.80;99.90
21035;DHT22;10676;50.848;3.272;2022-11-20T17:16:15;8.80;99.90
21035;DHT22;10676;50.848;3.272;2022-11-20T17:18:41;8.80;99.90
21035;DHT22;10676;50.848;3.272;2022-11-20T17:21:07;8.70;99.90
21035;DHT22;10676;50.848;3.272;2022-11-20T17:23:34;8.70;99.90
21035;DHT22;10676;50.848;3.272;2022-11-20T17:26:08;8.60;99.90
21035;DHT22;10676;50.848;3.272;2022-11-20T17:28:34;8.60;99.90
21035;DHT22;10676;50.848;3.272;2022-11-20T17:31:08;8.50;99.90
21035;DHT22;10676;50.848;3.272;2022-11-20T17:33:36;8.50;99.90
21035;DHT22;10676;50.848;3.272;2022-11-20T17:36:03;8.50;99.90
21035;DHT22;10676;50.848;3.272;2022-11-20T17:38:28;8.50;99.90
21035;DHT22;10676;50.848;3.272;2022-11-20T17:41:10;8.50;99.90
21035;DHT22;10676;50.848;3.272;2022-11-20T17:43:36;8.40;99.90
21035;DHT22;10676;50.848;3.272;2022-11-20T17:46:13;8.40;99.90
21035;DHT22;10676;50.848;3.272;2022-11-20T17:48:39;8.40;99.90
21035;DHT22;10676;50.848;3.272;2022-11-20T17:51:20;8.30;99.90